createdAt,value
2019-05-01T00:00:16.301Z,55.2
2019-05-01T00:05:03.446Z,55.7
2019-05-01T00:09:50.482Z,56
2019-05-01T00:14:37.508Z,56.2
2019-05-01T00:19:24.780Z,56.7
2019-05-01T00:24:12.427Z,56
2019-05-01T00:28:59.552Z,55.8
2019-05-01T00:33:46.673Z,56.4
2019-05-01T00:38:35.687Z,55.8
2019-05-01T00:43:23.059Z,56.3
2019-05-01T00:48:10.853Z,55.7
2019-05-01T00:52:58.971Z,56.7
2019-05-01T00:57:46.457Z,56.7
2019-05-01T01:02:33.512Z,57.3
2019-05-01T01:07:20.275Z,58.7
2019-05-01T01:12:08.136Z,58.6
2019-05-01T01:16:55.286Z,58.8
2019-05-01T01:21:43.290Z,59
2019-05-01T01:26:31.517Z,59.7
2019-05-01T01:31:21.067Z,59.7
2019-05-01T01:36:08.187Z,60
2019-05-01T01:40:55.302Z,59
2019-05-01T01:45:42.574Z,60.9
2019-05-01T01:50:29.440Z,62.1
2019-05-01T01:55:16.683Z,61.9
2019-05-01T02:00:04.422Z,63.5
2019-05-01T02:04:51.305Z,63.6
2019-05-01T02:09:38.399Z,62.9
2019-05-01T02:14:25.306Z,64.1
2019-05-01T02:19:12.296Z,64.7
2019-05-01T02:23:59.550Z,64.5
2019-05-01T02:28:00.136Z,72.7
2019-05-01T02:28:17.770Z,72.4
2019-05-01T02:28:33.900Z,72
2019-05-01T02:28:49.978Z,72
2019-05-01T02:29:05.753Z,71.4
2019-05-01T02:29:21.339Z,68.8
2019-05-01T02:29:36.972Z,68.6
2019-05-01T02:29:52.516Z,67.4
2019-05-01T02:30:08.052Z,65.9
2019-05-01T02:31:26.692Z,55.1
2019-05-01T02:36:15.600Z,45.2
2019-05-01T02:41:03.125Z,47.6
2019-05-01T02:45:50.155Z,51.1
2019-05-01T02:50:36.933Z,54.5
2019-05-01T02:55:24.657Z,56.8
2019-05-01T03:00:11.979Z,59.9
2019-05-01T03:04:58.949Z,61.2
2019-05-01T03:09:46.213Z,63.7
2019-05-01T03:14:33.886Z,65.2
2019-05-01T03:19:20.991Z,66.1
2019-05-01T03:23:21.688Z,70
2019-05-01T03:23:37.222Z,68.5
2019-05-01T03:23:52.867Z,67
2019-05-01T03:24:08.972Z,65.2
2019-05-01T03:25:11.198Z,55.5
2019-05-01T03:29:58.101Z,45.1
2019-05-01T03:34:51.899Z,47.3
2019-05-01T03:39:40.505Z,51.2
2019-05-01T03:44:27.458Z,54.6
2019-05-01T03:49:15.662Z,56.8
2019-05-01T03:54:02.766Z,59.2
2019-05-01T03:58:49.649Z,60.7
2019-05-01T04:03:36.341Z,62.6
2019-05-01T04:08:23.389Z,63.8
2019-05-01T04:13:10.857Z,66.9
2019-05-01T04:17:11.512Z,73.9
2019-05-01T04:17:27.039Z,73.9
2019-05-01T04:17:42.572Z,73.5
2019-05-01T04:17:58.114Z,73
2019-05-01T04:18:13.759Z,72.2
2019-05-01T04:18:29.333Z,71.1
2019-05-01T04:18:44.876Z,69.6
2019-05-01T04:19:00.398Z,68.2
2019-05-01T04:19:16.019Z,66.4
2019-05-01T04:19:32.081Z,64.6
2019-05-01T04:20:36.430Z,57.5
2019-05-01T04:25:23.725Z,46.5
2019-05-01T04:30:11.041Z,48.6
2019-05-01T04:34:58.051Z,51.4
2019-05-01T04:39:44.799Z,54.6
2019-05-01T04:44:31.914Z,57.8
2019-05-01T04:49:18.731Z,60
2019-05-01T04:54:08.013Z,60.4
2019-05-01T04:58:54.874Z,62.5
2019-05-01T05:03:43.062Z,63.9
2019-05-01T05:07:43.657Z,67.6
2019-05-01T05:07:59.414Z,68.6
2019-05-01T05:08:15.048Z,69.3
2019-05-01T05:08:30.621Z,69.2
2019-05-01T05:08:46.180Z,68.7
2019-05-01T05:09:01.737Z,68.7
2019-05-01T05:09:17.370Z,68.2
2019-05-01T05:09:32.935Z,67.7
2019-05-01T05:09:48.477Z,67.2
2019-05-01T05:10:04.004Z,66
2019-05-01T05:11:07.059Z,56.7
2019-05-01T05:15:53.822Z,45.9
2019-05-01T05:20:41.338Z,49
2019-05-01T05:25:28.352Z,50.9
2019-05-01T05:30:15.448Z,53.6
2019-05-01T05:35:02.840Z,56.6
2019-05-01T05:39:50.056Z,58
2019-05-01T05:44:37.468Z,60.7
2019-05-01T05:49:24.406Z,59.4
2019-05-01T05:54:13.753Z,60.7
2019-05-01T05:59:00.754Z,60.3
2019-05-01T06:03:47.730Z,60.6
2019-05-01T06:08:35.624Z,62.2
2019-05-01T06:13:23.112Z,60.7
2019-05-01T06:18:10.470Z,60.5
2019-05-01T06:22:57.336Z,59
2019-05-01T06:27:49.315Z,58.3
2019-05-01T06:32:39.939Z,58
2019-05-01T06:37:27.407Z,58.9
2019-05-01T06:42:15.539Z,57.3
2019-05-01T06:47:05.100Z,56.7
2019-05-01T06:51:53.189Z,56.4
2019-05-01T06:56:41.126Z,55
2019-05-01T07:01:27.831Z,54.8
2019-05-01T07:06:15.369Z,54.2
2019-05-01T07:11:02.392Z,54.3
2019-05-01T07:15:49.668Z,51.3
2019-05-01T07:20:38.629Z,51.2
2019-05-01T07:25:25.847Z,51.2
2019-05-01T07:30:15.864Z,50.2
2019-05-01T07:35:06.731Z,52.4
2019-05-01T07:39:54.248Z,50.8
2019-05-01T07:44:41.149Z,50.8
2019-05-01T07:49:28.369Z,48.7
2019-05-01T07:54:15.153Z,49.9
2019-05-01T07:59:02.249Z,46.4
2019-05-01T08:03:49.088Z,46.5
2019-05-01T08:08:39.603Z,45.5
2019-05-01T08:13:30.700Z,46.4
2019-05-01T08:18:24.145Z,45.5
2019-05-01T08:23:15.455Z,43.4
2019-05-01T08:28:02.364Z,41.3
2019-05-01T08:32:49.435Z,41.9
2019-05-01T08:37:36.528Z,40.1
2019-05-01T08:42:23.244Z,40.6
2019-05-01T08:47:10.148Z,40.4
2019-05-01T08:51:56.876Z,40
2019-05-01T08:56:44.995Z,38.2
2019-05-01T09:01:31.958Z,37.3
2019-05-01T09:06:19.197Z,36.1
2019-05-01T09:11:06.828Z,36.7
2019-05-01T09:15:54.699Z,37.5
2019-05-01T09:20:42.144Z,36
2019-05-01T09:25:30.939Z,34.6
2019-05-01T09:30:26.777Z,33.7
2019-05-01T09:35:15.812Z,33.3
2019-05-01T09:40:04.076Z,33.7
2019-05-01T09:44:55.491Z,32
2019-05-01T09:49:42.337Z,31.9
2019-05-01T09:54:29.676Z,31
2019-05-01T09:59:17.525Z,29.7
2019-05-01T10:04:06.432Z,29.2
2019-05-01T10:08:54.936Z,29.9
2019-05-01T10:13:42.271Z,30.4
2019-05-01T10:18:29.168Z,29.5
2019-05-01T10:23:18.409Z,32.4
2019-05-01T10:28:07.298Z,32.6
2019-05-01T10:32:59.696Z,30.5
2019-05-01T10:37:47.234Z,33.2
2019-05-01T10:42:34.187Z,31.7
2019-05-01T10:47:21.298Z,31.2
2019-05-01T10:52:14.196Z,30.1
2019-05-01T10:57:06.838Z,30.5
2019-05-01T11:01:54.938Z,29.8
2019-05-01T11:06:43.640Z,29.7
2019-05-01T11:11:31.374Z,28.4
2019-05-01T11:16:18.551Z,28.3
2019-05-01T11:21:05.788Z,28.2
2019-05-01T11:25:52.719Z,28
2019-05-01T11:30:40.924Z,27.7
2019-05-01T11:35:33.646Z,28.8
2019-05-01T11:40:20.916Z,30.8
2019-05-01T11:45:08.413Z,31.6
2019-05-01T11:49:55.800Z,33
2019-05-01T11:54:42.908Z,34.5
2019-05-01T11:59:32.585Z,35.8
2019-05-01T12:04:20.892Z,36.5
2019-05-01T12:09:08.535Z,37.7
2019-05-01T12:13:56.953Z,37.6
2019-05-01T12:18:43.770Z,39
2019-05-01T12:23:31.567Z,40.1
2019-05-01T12:28:18.557Z,38
2019-05-01T12:33:05.324Z,38.8
2019-05-01T12:37:55.269Z,39.8
2019-05-01T12:42:42.810Z,40
2019-05-01T12:47:30.410Z,39.3
2019-05-01T12:52:17.365Z,39.1
2019-05-01T12:57:04.318Z,41.4
2019-05-01T13:01:51.108Z,39.2
2019-05-01T13:06:48.842Z,36.9
2019-05-01T13:11:37.374Z,37.1
2019-05-01T13:16:25.225Z,37.1
2019-05-01T13:21:12.585Z,38.1
2019-05-01T13:25:59.772Z,39.1
2019-05-01T13:30:49.050Z,39.6
2019-05-01T13:35:36.160Z,41.6
2019-05-01T13:40:23.294Z,41.6
2019-05-01T13:45:10.406Z,42.1
2019-05-01T13:49:57.249Z,43.1
2019-05-01T13:54:44.294Z,44.5
2019-05-01T13:59:31.176Z,47
2019-05-01T14:04:21.385Z,49.4
2019-05-01T14:09:09.538Z,49.4
2019-05-01T14:13:59.382Z,50.4
2019-05-01T14:18:46.964Z,52.3
2019-05-01T14:23:34.589Z,52.3
2019-05-01T14:28:22.046Z,53.5
2019-05-01T14:33:09.414Z,54.4
2019-05-01T14:37:57.280Z,55.3
2019-05-01T14:42:44.612Z,54.2
2019-05-01T14:47:31.454Z,53.8
2019-05-01T14:52:18.945Z,54.7
2019-05-01T14:57:05.750Z,53.5
2019-05-01T15:01:53.134Z,52.9
2019-05-01T15:06:40.533Z,52.8
2019-05-01T15:11:27.399Z,53
2019-05-01T15:16:14.648Z,53.9
2019-05-01T15:21:02.421Z,55.1
2019-05-01T15:25:49.771Z,54.7
2019-05-01T15:30:36.758Z,51
2019-05-01T15:35:25.577Z,49.8
2019-05-01T15:40:13.271Z,50.8
2019-05-01T15:45:00.572Z,50.4
2019-05-01T15:49:47.966Z,49.1
2019-05-01T15:54:36.046Z,48.4
2019-05-01T15:59:25.415Z,49.3
2019-05-01T16:04:14.688Z,49.9
2019-05-01T16:09:01.796Z,50.5
2019-05-01T16:13:49.192Z,51.3
2019-05-01T16:18:36.768Z,51.8
2019-05-01T16:23:24.320Z,51.3
2019-05-01T16:28:11.138Z,47
2019-05-01T16:32:58.530Z,45.9
2019-05-01T16:37:45.787Z,42.1
2019-05-01T16:42:32.551Z,38.9
2019-05-01T16:47:19.511Z,37.8
2019-05-01T16:52:07.096Z,36.7
2019-05-01T16:56:54.375Z,36.5
2019-05-01T17:01:41.532Z,37.8
2019-05-01T17:06:28.657Z,40.7
2019-05-01T17:11:17.726Z,43.5
2019-05-01T17:16:04.705Z,44.9
2019-05-01T17:20:52.587Z,46.3
2019-05-01T17:25:40.887Z,47.1
2019-05-01T17:30:28.126Z,47.4
2019-05-01T17:35:15.685Z,48.7
2019-05-01T17:40:08.287Z,49
2019-05-01T17:44:55.924Z,50.6
2019-05-01T17:49:46.814Z,51.7
2019-05-01T17:54:34.069Z,51.7
2019-05-01T17:59:22.270Z,52.2
2019-05-01T18:04:14.685Z,53.2
2019-05-01T18:09:03.164Z,54.2
2019-05-01T18:13:56.861Z,55.9
2019-05-01T18:18:45.229Z,55.7
2019-05-01T18:23:32.017Z,55.6
2019-05-01T18:28:19.199Z,56
2019-05-01T18:33:06.026Z,56.5
2019-05-01T18:37:53.401Z,57.1
2019-05-01T18:42:40.533Z,57
2019-05-01T18:47:27.460Z,57.1
2019-05-01T18:52:14.571Z,57.7
2019-05-01T18:57:01.837Z,58.4
2019-05-01T19:01:49.723Z,59.9
2019-05-01T19:06:41.767Z,59
2019-05-01T19:11:31.336Z,61.1
2019-05-01T19:16:18.536Z,61.4
2019-05-01T19:21:05.797Z,62.7
2019-05-01T19:25:56.566Z,63.8
2019-05-01T19:30:48.548Z,63.8
2019-05-01T19:35:35.909Z,66.1
2019-05-01T19:40:25.212Z,62.2
2019-05-01T19:45:18.547Z,62.1
2019-05-01T19:50:07.520Z,64.4
2019-05-01T19:55:01.356Z,65.2
2019-05-01T19:59:53.193Z,59.3
2019-05-01T20:04:40.380Z,55.7
2019-05-01T20:09:27.986Z,58.1
2019-05-01T20:14:15.039Z,59.7
2019-05-01T20:19:01.916Z,63
2019-05-01T20:23:49.155Z,63.5
2019-05-01T20:28:37.370Z,65.3
2019-05-01T20:33:24.415Z,58.5
2019-05-01T20:38:11.249Z,54.2
2019-05-01T20:43:01.098Z,57
2019-05-01T20:47:54.366Z,60
2019-05-01T20:52:42.173Z,63.6
2019-05-01T20:56:42.816Z,65.1
2019-05-01T20:57:45.506Z,67.1
2019-05-01T21:02:32.977Z,57.7
2019-05-01T21:07:21.383Z,54.1
2019-05-01T21:12:08.284Z,57.3
2019-05-01T21:16:55.686Z,61.3
2019-05-01T21:21:43.454Z,64
2019-05-01T21:26:33.435Z,67.2
2019-05-01T21:30:38.672Z,67.4
2019-05-01T21:31:45.475Z,58.1
2019-05-01T21:36:32.564Z,51
2019-05-01T21:41:19.836Z,54.3
2019-05-01T21:46:06.762Z,57.9
2019-05-01T21:50:53.766Z,62.5
2019-05-01T21:55:45.586Z,66.4
2019-05-01T22:00:33.945Z,58.1
2019-05-01T22:05:21.222Z,51.9
2019-05-01T22:10:08.034Z,55
2019-05-01T22:14:54.990Z,58.8
2019-05-01T22:19:42.004Z,61
2019-05-01T22:24:28.769Z,68.4
2019-05-01T22:29:15.747Z,61.1
2019-05-01T22:34:02.847Z,52.5
2019-05-01T22:38:49.826Z,55.9
2019-05-01T22:43:37.497Z,60.6
2019-05-01T22:48:24.783Z,66
2019-05-01T22:52:25.402Z,70.3
2019-05-01T22:52:40.992Z,70.2
2019-05-01T22:52:56.647Z,67.9
2019-05-01T22:53:13.049Z,66.4
2019-05-01T22:53:29.924Z,65.9
2019-05-01T22:53:45.531Z,65.5
2019-05-01T22:54:48.931Z,60
2019-05-01T22:59:37.110Z,52.4
2019-05-01T23:04:23.835Z,56.8
2019-05-01T23:09:11.028Z,61.8
2019-05-01T23:13:58.216Z,68
2019-05-01T23:17:58.864Z,66.7
2019-05-01T23:18:15.380Z,66.5
2019-05-01T23:19:17.902Z,59.4
2019-05-01T23:24:06.480Z,53.7
2019-05-01T23:28:53.663Z,57.4
2019-05-01T23:33:40.410Z,62.8
2019-05-01T23:37:41.422Z,66.2
2019-05-01T23:37:57.882Z,66.6
2019-05-01T23:38:13.906Z,66.7
2019-05-01T23:38:29.526Z,66.7
2019-05-01T23:38:45.092Z,67.1
2019-05-01T23:39:00.606Z,67.8
2019-05-01T23:39:16.190Z,68.3
2019-05-01T23:39:39.745Z,68.7
2019-05-01T23:39:56.148Z,70.4
2019-05-01T23:40:15.514Z,70.4
2019-05-01T23:40:32.355Z,68.6
2019-05-01T23:40:50.937Z,67.8
2019-05-01T23:41:08.327Z,66.6
2019-05-01T23:41:44.575Z,67.6
2019-05-01T23:42:02.235Z,67.9
2019-05-01T23:42:17.872Z,67.3
2019-05-01T23:42:33.435Z,65.2
2019-05-01T23:43:35.816Z,59.6
2019-05-01T23:48:22.519Z,51
2019-05-01T23:53:13.975Z,54.5
2019-05-01T23:58:03.318Z,60.9
